sensor_id;sensor_type;location;lat;lon;timestamp;pressure;altitude;pressure_sealevel;temperature;humidity
69570;BME280;56781;42.292;23.146;2023-03-14T00:02:15;95813.75;;;-2.65;100.00
69570;BME280;56781;42.292;23.146;2023-03-14T00:04:42;95830.19;;;-2.52;100.00
69570;BME280;56781;42.292;23.146;2023-03-14T00:07:13;95810.53;;;-2.68;100.00
69570;BME280;56781;42.292;23.146;2023-03-14T00:09:41;95827.94;;;-2.48;100.00
69570;BME280;56781;42.292;23.146;2023-03-14T00:12:08;95811.06;;;-2.97;100.00
69570;BME280;56781;42.292;23.146;2023-03-14T00:14:35;95809.34;;;-3.30;100.00
69570;BME280;56781;42.292;23.146;2023-03-14T00:17:03;95808.38;;;-3.49;100.00
69570;BME280;56781;42.292;23.146;2023-03-14T00:19:30;95798.94;;;-3.50;100.00
69570;BME280;56781;42.292;23.146;2023-03-14T00:21:57;95798.47;;;-3.27;100.00
69570;BME280;56781;42.292;23.146;2023-03-14T00:24:24;95787.84;;;-3.45;100.00
69570;BME280;56781;42.292;23.146;2023-03-14T00:26:52;95765.34;;;-3.60;100.00
69570;BME280;56781;42.292;23.146;2023-03-14T00:29:19;95728.53;;;-3.78;100.00
69570;BME280;56781;42.292;23.146;2023-03-14T00:31:46;95777.41;;;-3.52;100.00
69570;BME280;56781;42.292;23.146;2023-03-14T00:34:13;95793.84;;;-3.25;100.00
69570;BME280;56781;42.292;23.146;2023-03-14T00:36:40;95752.03;;;-3.51;100.00
69570;BME280;56781;42.292;23.146;2023-03-14T00:39:07;95774.94;;;-3.33;100.00
69570;BME280;56781;42.292;23.146;2023-03-14T00:41:35;95770.28;;;-3.25;100.00
69570;BME280;56781;42.292;23.146;2023-03-14T00:44:02;95764.00;;;-3.17;100.00
69570;BME280;56781;42.292;23.146;2023-03-14T00:46:29;95774.66;;;-3.12;100.00
69570;BME280;56781;42.292;23.146;2023-03-14T00:48:56;95744.63;;;-3.09;100.00
69570;BME280;56781;42.292;23.146;2023-03-14T00:51:23;95781.03;;;-2.56;100.00
69570;BME280;56781;42.292;23.146;2023-03-14T00:53:50;95745.19;;;-2.62;100.00
69570;BME280;56781;42.292;23.146;2023-03-14T00:56:18;95749.22;;;-2.67;100.00
69570;BME280;56781;42.292;23.146;2023-03-14T00:58:45;95743.78;;;-2.65;100.00
69570;BME280;56781;42.292;23.146;2023-03-14T01:01:17;95746.09;;;-2.50;100.00
69570;BME280;56781;42.292;23.146;2023-03-14T01:03:45;95759.69;;;-2.03;100.00
69570;BME280;56781;42.292;23.146;2023-03-14T01:06:20;95730.44;;;-2.25;100.00
69570;BME280;56781;42.292;23.146;2023-03-14T01:08:48;95733.50;;;-2.35;100.00
69570;BME280;56781;42.292;23.146;2023-03-14T01:11:24;95713.31;;;-2.59;100.00
69570;BME280;56781;42.292;23.146;2023-03-14T01:13:52;95767.94;;;-2.25;100.00
69570;BME280;56781;42.292;23.146;2023-03-14T01:16:20;95728.09;;;-2.40;100.00
69570;BME280;56781;42.292;23.146;2023-03-14T01:18:48;95734.13;;;-2.39;100.00
69570;BME280;56781;42.292;23.146;2023-03-14T01:21:24;95727.19;;;-2.84;100.00
69570;BME280;56781;42.292;23.146;2023-03-14T01:23:53;95732.59;;;-3.24;100.00
69570;BME280;56781;42.292;23.146;2023-03-14T01:26:23;95727.22;;;-3.42;100.00
69570;BME280;56781;42.292;23.146;2023-03-14T01:28:53;95722.91;;;-3.17;100.00
69570;BME280;56781;42.292;23.146;2023-03-14T01:31:20;95722.81;;;-3.42;100.00
69570;BME280;56781;42.292;23.146;2023-03-14T01:33:48;95709.00;;;-3.55;100.00
69570;BME280;56781;42.292;23.146;2023-03-14T01:36:15;95696.94;;;-3.70;100.00
69570;BME280;56781;42.292;23.146;2023-03-14T01:38:43;95721.94;;;-3.87;100.00
69570;BME280;56781;42.292;23.146;2023-03-14T01:41:16;95721.53;;;-3.84;100.00
69570;BME280;56781;42.292;23.146;2023-03-14T01:43:45;95750.22;;;-3.44;100.00
69570;BME280;56781;42.292;23.146;2023-03-14T01:46:32;95716.63;;;-3.54;100.00
69570;BME280;56781;42.292;23.146;2023-03-14T01:49:20;95709.00;;;-3.62;100.00
69570;BME280;56781;42.292;23.146;2023-03-14T01:52:02;95720.25;;;-3.55;100.00
69570;BME280;56781;42.292;23.146;2023-03-14T01:54:40;95702.53;;;-3.60;100.00
69570;BME280;56781;42.292;23.146;2023-03-14T01:57:20;95713.34;;;-3.36;100.00
69570;BME280;56781;42.292;23.146;2023-03-14T01:59:57;95729.56;;;-3.21;100.00
69570;BME280;56781;42.292;23.146;2023-03-14T02:02:26;95730.22;;;-3.25;100.00
69570;BME280;56781;42.292;23.146;2023-03-14T02:04:55;95712.13;;;-3.40;100.00
69570;BME280;56781;42.292;23.146;2023-03-14T02:07:27;95722.28;;;-3.70;100.00
69570;BME280;56781;42.292;23.146;2023-03-14T02:09:58;95714.63;;;-3.65;100.00
69570;BME280;56781;42.292;23.146;2023-03-14T02:12:28;95717.19;;;-3.45;100.00
69570;BME280;56781;42.292;23.146;2023-03-14T02:14:55;95717.41;;;-3.47;100.00
69570;BME280;56781;42.292;23.146;2023-03-14T02:17:22;95712.94;;;-3.40;100.00
69570;BME280;56781;42.292;23.146;2023-03-14T02:20:06;95725.06;;;-3.52;100.00
69570;BME280;56781;42.292;23.146;2023-03-14T02:22:39;95706.03;;;-3.79;100.00
69570;BME280;56781;42.292;23.146;2023-03-14T02:25:15;95718.75;;;-4.16;100.00
69570;BME280;56781;42.292;23.146;2023-03-14T02:27:44;95691.22;;;-4.38;100.00
69570;BME280;56781;42.292;23.146;2023-03-14T02:30:15;95692.25;;;-4.39;100.00
69570;BME280;56781;42.292;23.146;2023-03-14T02:32:46;95701.47;;;-4.30;100.00
69570;BME280;56781;42.292;23.146;2023-03-14T02:35:18;95678.97;;;-4.38;100.00
69570;BME280;56781;42.292;23.146;2023-03-14T02:38:11;95682.97;;;-4.35;100.00
69570;BME280;56781;42.292;23.146;2023-03-14T02:40:42;95683.38;;;-4.38;100.00
69570;BME280;56781;42.292;23.146;2023-03-14T02:43:09;95675.56;;;-4.38;100.00
69570;BME280;56781;42.292;23.146;2023-03-14T02:45:42;95693.22;;;-4.27;100.00
69570;BME280;56781;42.292;23.146;2023-03-14T02:48:27;95686.59;;;-4.30;100.00
69570;BME280;56781;42.292;23.146;2023-03-14T02:50:57;95694.63;;;-4.25;100.00
69570;BME280;56781;42.292;23.146;2023-03-14T02:53:29;95691.22;;;-4.52;100.00
69570;BME280;56781;42.292;23.146;2023-03-14T02:55:58;95674.97;;;-4.80;100.00
69570;BME280;56781;42.292;23.146;2023-03-14T02:58:28;95684.81;;;-4.56;100.00
69570;BME280;56781;42.292;23.146;2023-03-14T03:00:56;95681.19;;;-4.41;100.00
69570;BME280;56781;42.292;23.146;2023-03-14T03:03:23;95723.56;;;-4.06;100.00
69570;BME280;56781;42.292;23.146;2023-03-14T03:05:52;95696.44;;;-4.18;100.00
69570;BME280;56781;42.292;23.146;2023-03-14T03:08:20;95706.66;;;-3.97;100.00
69570;BME280;56781;42.292;23.146;2023-03-14T03:10:48;95686.31;;;-3.88;100.00
69570;BME280;56781;42.292;23.146;2023-03-14T03:13:15;95699.34;;;-3.75;100.00
69570;BME280;56781;42.292;23.146;2023-03-14T03:15:43;95707.56;;;-3.51;100.00
69570;BME280;56781;42.292;23.146;2023-03-14T03:18:10;95707.75;;;-3.46;100.00
69570;BME280;56781;42.292;23.146;2023-03-14T03:20:38;95733.34;;;-3.62;100.00
69570;BME280;56781;42.292;23.146;2023-03-14T03:23:05;95704.97;;;-3.65;100.00
69570;BME280;56781;42.292;23.146;2023-03-14T03:25:33;95702.97;;;-3.69;100.00
69570;BME280;56781;42.292;23.146;2023-03-14T03:28:01;95713.25;;;-3.74;100.00
69570;BME280;56781;42.292;23.146;2023-03-14T03:30:28;95703.59;;;-3.74;100.00
69570;BME280;56781;42.292;23.146;2023-03-14T03:32:56;95744.03;;;-3.83;100.00
69570;BME280;56781;42.292;23.146;2023-03-14T03:35:23;95717.13;;;-4.24;100.00
69570;BME280;56781;42.292;23.146;2023-03-14T03:37:50;95716.13;;;-4.29;100.00
69570;BME280;56781;42.292;23.146;2023-03-14T03:40:17;95725.19;;;-4.52;100.00
69570;BME280;56781;42.292;23.146;2023-03-14T03:42:44;95712.31;;;-4.80;100.00
69570;BME280;56781;42.292;23.146;2023-03-14T03:45:12;95743.84;;;-4.68;100.00
69570;BME280;56781;42.292;23.146;2023-03-14T03:47:39;95752.72;;;-4.49;100.00
69570;BME280;56781;42.292;23.146;2023-03-14T03:50:06;95721.56;;;-4.57;100.00
69570;BME280;56781;42.292;23.146;2023-03-14T03:52:34;95688.19;;;-4.75;100.00
69570;BME280;56781;42.292;23.146;2023-03-14T03:55:01;95730.81;;;-4.41;100.00
69570;BME280;56781;42.292;23.146;2023-03-14T03:57:28;95734.03;;;-4.46;100.00
69570;BME280;56781;42.292;23.146;2023-03-14T03:59:55;95723.56;;;-4.79;100.00
69570;BME280;56781;42.292;23.146;2023-03-14T04:02:22;95731.34;;;-4.99;100.00
69570;BME280;56781;42.292;23.146;2023-03-14T04:04:50;95731.53;;;-5.01;100.00
69570;BME280;56781;42.292;23.146;2023-03-14T04:07:17;95726.50;;;-5.02;100.00
69570;BME280;56781;42.292;23.146;2023-03-14T04:09:44;95759.94;;;-4.51;100.00
69570;BME280;56781;42.292;23.146;2023-03-14T04:12:11;95730.00;;;-4.55;100.00
69570;BME280;56781;42.292;23.146;2023-03-14T04:14:39;95736.84;;;-4.54;100.00
69570;BME280;56781;42.292;23.146;2023-03-14T04:17:08;95728.38;;;-4.70;100.00
69570;BME280;56781;42.292;23.146;2023-03-14T04:19:35;95727.78;;;-4.72;100.00
69570;BME280;56781;42.292;23.146;2023-03-14T04:22:02;95729.16;;;-4.89;100.00
69570;BME280;56781;42.292;23.146;2023-03-14T04:24:29;95721.13;;;-4.87;100.00
69570;BME280;56781;42.292;23.146;2023-03-14T04:26:56;95711.09;;;-4.91;100.00
69570;BME280;56781;42.292;23.146;2023-03-14T04:29:24;95693.19;;;-5.07;100.00
69570;BME280;56781;42.292;23.146;2023-03-14T04:31:51;95692.19;;;-4.99;100.00
69570;BME280;56781;42.292;23.146;2023-03-14T04:34:18;95722.31;;;-4.90;100.00
69570;BME280;56781;42.292;23.146;2023-03-14T04:36:45;95700.63;;;-4.97;100.00
69570;BME280;56781;42.292;23.146;2023-03-14T04:39:13;95688.19;;;-4.82;100.00
69570;BME280;56781;42.292;23.146;2023-03-14T04:41:40;95717.56;;;-4.53;100.00
69570;BME280;56781;42.292;23.146;2023-03-14T04:44:07;95691.44;;;-4.53;100.00
69570;BME280;56781;42.292;23.146;2023-03-14T04:46:34;95710.13;;;-4.36;100.00
69570;BME280;56781;42.292;23.146;2023-03-14T04:49:01;95694.66;;;-4.31;100.00
69570;BME280;56781;42.292;23.146;2023-03-14T04:51:28;95686.94;;;-3.99;100.00
69570;BME280;56781;42.292;23.146;2023-03-14T04:53:55;95680.31;;;-3.95;100.00
69570;BME280;56781;42.292;23.146;2023-03-14T04:56:23;95689.13;;;-3.76;100.00
69570;BME280;56781;42.292;23.146;2023-03-14T04:58:50;95692.13;;;-3.73;100.00
69570;BME280;56781;42.292;23.146;2023-03-14T05:01:17;95662.59;;;-3.87;100.00
69570;BME280;56781;42.292;23.146;2023-03-14T05:03:44;95659.78;;;-3.85;100.00
69570;BME280;56781;42.292;23.146;2023-03-14T05:06:12;95669.19;;;-3.71;100.00
69570;BME280;56781;42.292;23.146;2023-03-14T05:08:39;95664.38;;;-3.74;100.00
69570;BME280;56781;42.292;23.146;2023-03-14T05:11:06;95665.91;;;-3.60;100.00
69570;BME280;56781;42.292;23.146;2023-03-14T05:13:33;95672.13;;;-3.47;100.00
69570;BME280;56781;42.292;23.146;2023-03-14T05:16:06;95671.09;;;-3.46;100.00
69570;BME280;56781;42.292;23.146;2023-03-14T05:18:33;95699.97;;;-3.21;100.00
69570;BME280;56781;42.292;23.146;2023-03-14T05:21:01;95660.75;;;-3.28;100.00
69570;BME280;56781;42.292;23.146;2023-03-14T05:23:28;95694.59;;;-2.95;100.00
69570;BME280;56781;42.292;23.146;2023-03-14T05:25:56;95648.88;;;-3.30;100.00
69570;BME280;56781;42.292;23.146;2023-03-14T05:28:23;95660.84;;;-3.09;100.00
69570;BME280;56781;42.292;23.146;2023-03-14T05:30:50;95653.50;;;-2.94;100.00
69570;BME280;56781;42.292;23.146;2023-03-14T05:33:17;95653.41;;;-2.81;100.00
69570;BME280;56781;42.292;23.146;2023-03-14T05:35:44;95647.91;;;-2.73;100.00
69570;BME280;56781;42.292;23.146;2023-03-14T05:38:12;95643.22;;;-2.64;99.96
69570;BME280;56781;42.292;23.146;2023-03-14T05:40:39;95679.22;;;-2.28;99.24
69570;BME280;56781;42.292;23.146;2023-03-14T05:43:06;95646.31;;;-2.49;99.96
69570;BME280;56781;42.292;23.146;2023-03-14T05:45:34;95651.69;;;-2.18;99.56
69570;BME280;56781;42.292;23.146;2023-03-14T05:48:02;95644.59;;;-2.36;100.00
69570;BME280;56781;42.292;23.146;2023-03-14T05:50:29;95681.13;;;-2.16;100.00
69570;BME280;56781;42.292;23.146;2023-03-14T05:52:56;95643.22;;;-2.20;100.00
69570;BME280;56781;42.292;23.146;2023-03-14T05:55:23;95643.72;;;-1.87;100.00
69570;BME280;56781;42.292;23.146;2023-03-14T05:57:52;95643.47;;;-1.67;99.06
69570;BME280;56781;42.292;23.146;2023-03-14T06:00:19;95641.94;;;-1.38;98.76
69570;BME280;56781;42.292;23.146;2023-03-14T06:02:47;95635.28;;;-0.68;95.52
69570;BME280;56781;42.292;23.146;2023-03-14T06:05:14;95647.84;;;0.88;87.68
69570;BME280;56781;42.292;23.146;2023-03-14T06:07:41;95634.09;;;2.60;80.14
69570;BME280;56781;42.292;23.146;2023-03-14T06:10:09;95630.72;;;4.20;72.47
69570;BME280;56781;42.292;23.146;2023-03-14T06:12:36;95654.78;;;6.32;63.99
69570;BME280;56781;42.292;23.146;2023-03-14T06:15:03;95632.16;;;7.49;57.42
69570;BME280;56781;42.292;23.146;2023-03-14T06:17:31;95609.72;;;7.89;55.83
69570;BME280;56781;42.292;23.146;2023-03-14T06:19:58;95617.22;;;9.13;51.25
69570;BME280;56781;42.292;23.146;2023-03-14T06:22:25;95619.47;;;9.24;49.91
69570;BME280;56781;42.292;23.146;2023-03-14T06:24:52;95633.88;;;8.32;51.87
69570;BME280;56781;42.292;23.146;2023-03-14T06:27:19;95645.84;;;9.50;49.77
69570;BME280;56781;42.292;23.146;2023-03-14T06:29:46;95639.34;;;8.94;50.53
69570;BME280;56781;42.292;23.146;2023-03-14T06:32:14;95615.88;;;9.86;48.63
69570;BME280;56781;42.292;23.146;2023-03-14T06:34:41;95623.91;;;9.86;49.33
69570;BME280;56781;42.292;23.146;2023-03-14T06:37:08;95627.41;;;10.60;46.64
69570;BME280;56781;42.292;23.146;2023-03-14T06:39:35;95642.88;;;11.91;42.95
69570;BME280;56781;42.292;23.146;2023-03-14T06:42:02;95614.44;;;12.35;41.67
69570;BME280;56781;42.292;23.146;2023-03-14T06:44:29;95656.38;;;12.00;41.92
69570;BME280;56781;42.292;23.146;2023-03-14T06:46:56;95640.25;;;11.41;43.58
69570;BME280;56781;42.292;23.146;2023-03-14T06:49:23;95656.41;;;10.86;43.95
69570;BME280;56781;42.292;23.146;2023-03-14T06:51:50;95628.97;;;13.32;40.36
69570;BME280;56781;42.292;23.146;2023-03-14T06:54:17;95635.31;;;11.93;42.33
69570;BME280;56781;42.292;23.146;2023-03-14T06:56:44;95634.16;;;12.39;40.36
69570;BME280;56781;42.292;23.146;2023-03-14T06:59:12;95634.19;;;11.36;43.15
69570;BME280;56781;42.292;23.146;2023-03-14T07:01:39;95614.41;;;12.04;42.30
69570;BME280;56781;42.292;23.146;2023-03-14T07:04:07;95594.25;;;12.47;38.68
69570;BME280;56781;42.292;23.146;2023-03-14T07:06:35;95609.19;;;12.08;41.29
69570;BME280;56781;42.292;23.146;2023-03-14T07:09:02;95626.38;;;12.29;40.98
69570;BME280;56781;42.292;23.146;2023-03-14T07:11:29;95590.38;;;11.76;42.73
69570;BME280;56781;42.292;23.146;2023-03-14T07:13:57;95573.56;;;11.62;40.80
69570;BME280;56781;42.292;23.146;2023-03-14T07:16:24;95582.97;;;11.01;43.21
69570;BME280;56781;42.292;23.146;2023-03-14T07:18:55;95551.91;;;11.81;42.26
69570;BME280;56781;42.292;23.146;2023-03-14T07:21:22;95570.13;;;12.64;41.26
69570;BME280;56781;42.292;23.146;2023-03-14T07:23:49;95584.75;;;12.89;41.14
69570;BME280;56781;42.292;23.146;2023-03-14T07:26:16;95586.00;;;12.92;40.09
69570;BME280;56781;42.292;23.146;2023-03-14T07:28:44;95577.38;;;11.11;46.07
69570;BME280;56781;42.292;23.146;2023-03-14T07:31:11;95582.72;;;12.95;41.81
69570;BME280;56781;42.292;23.146;2023-03-14T07:33:38;95556.38;;;12.17;40.73
69570;BME280;56781;42.292;23.146;2023-03-14T07:36:06;95579.72;;;10.62;45.96
69570;BME280;56781;42.292;23.146;2023-03-14T07:38:33;95567.78;;;9.67;46.76
69570;BME280;56781;42.292;23.146;2023-03-14T07:41:02;95547.75;;;10.94;44.60
69570;BME280;56781;42.292;23.146;2023-03-14T07:43:29;95564.69;;;12.07;42.24
69570;BME280;56781;42.292;23.146;2023-03-14T07:45:57;95529.81;;;13.39;38.47
69570;BME280;56781;42.292;23.146;2023-03-14T07:48:25;95541.78;;;13.67;37.21
69570;BME280;56781;42.292;23.146;2023-03-14T07:50:54;95532.56;;;13.94;36.41
69570;BME280;56781;42.292;23.146;2023-03-14T07:53:22;95545.81;;;14.17;35.91
69570;BME280;56781;42.292;23.146;2023-03-14T07:55:51;95545.56;;;13.84;36.65
69570;BME280;56781;42.292;23.146;2023-03-14T07:58:19;95535.50;;;14.28;36.25
69570;BME280;56781;42.292;23.146;2023-03-14T08:00:49;95530.22;;;13.75;38.33
69570;BME280;56781;42.292;23.146;2023-03-14T08:03:17;95525.22;;;13.30;39.47
69570;BME280;56781;42.292;23.146;2023-03-14T08:05:47;95544.66;;;13.71;39.05
69570;BME280;56781;42.292;23.146;2023-03-14T08:08:14;95527.56;;;13.15;39.39
69570;BME280;56781;42.292;23.146;2023-03-14T08:10:42;95510.75;;;13.79;37.65
69570;BME280;56781;42.292;23.146;2023-03-14T08:13:10;95546.09;;;13.34;38.74
69570;BME280;56781;42.292;23.146;2023-03-14T08:15:37;95526.63;;;13.54;39.14
69570;BME280;56781;42.292;23.146;2023-03-14T08:18:04;95518.72;;;14.13;38.06
69570;BME280;56781;42.292;23.146;2023-03-14T08:20:32;95521.06;;;12.90;39.96
69570;BME280;56781;42.292;23.146;2023-03-14T08:23:00;95517.91;;;13.74;37.80
69570;BME280;56781;42.292;23.146;2023-03-14T08:25:28;95514.91;;;13.15;40.77
69570;BME280;56781;42.292;23.146;2023-03-14T08:27:55;95529.00;;;13.56;38.16
69570;BME280;56781;42.292;23.146;2023-03-14T08:30:23;95519.03;;;13.56;40.35
69570;BME280;56781;42.292;23.146;2023-03-14T08:32:51;95509.00;;;14.30;39.34
69570;BME280;56781;42.292;23.146;2023-03-14T08:35:18;95506.22;;;13.53;39.88
69570;BME280;56781;42.292;23.146;2023-03-14T08:37:46;95493.25;;;13.38;39.95
69570;BME280;56781;42.292;23.146;2023-03-14T08:40:13;95487.81;;;13.72;36.67
69570;BME280;56781;42.292;23.146;2023-03-14T08:42:42;95488.19;;;12.93;39.37
69570;BME280;56781;42.292;23.146;2023-03-14T08:45:12;95504.38;;;13.27;37.25
69570;BME280;56781;42.292;23.146;2023-03-14T08:47:40;95515.41;;;13.35;38.91
69570;BME280;56781;42.292;23.146;2023-03-14T08:50:08;95484.06;;;13.13;38.49
69570;BME280;56781;42.292;23.146;2023-03-14T08:52:40;95502.69;;;13.79;38.31
69570;BME280;56781;42.292;23.146;2023-03-14T08:55:08;95509.38;;;15.08;37.53
69570;BME280;56781;42.292;23.146;2023-03-14T08:57:36;95486.25;;;13.71;37.51
69570;BME280;56781;42.292;23.146;2023-03-14T09:00:05;95467.97;;;13.04;39.14
69570;BME280;56781;42.292;23.146;2023-03-14T09:02:37;95480.88;;;12.10;39.77
69570;BME280;56781;42.292;23.146;2023-03-14T09:05:05;95477.09;;;11.26;43.04
69570;BME280;56781;42.292;23.146;2023-03-14T09:07:32;95477.94;;;10.90;44.95
69570;BME280;56781;42.292;23.146;2023-03-14T09:09:59;95493.53;;;11.56;45.61
69570;BME280;56781;42.292;23.146;2023-03-14T09:12:26;95460.94;;;11.40;44.71
69570;BME280;56781;42.292;23.146;2023-03-14T09:14:54;95475.16;;;11.18;45.30
69570;BME280;56781;42.292;23.146;2023-03-14T09:17:21;95472.47;;;11.40;45.33
69570;BME280;56781;42.292;23.146;2023-03-14T09:19:48;95439.22;;;10.74;43.26
69570;BME280;56781;42.292;23.146;2023-03-14T09:22:15;95436.63;;;10.69;45.14
69570;BME280;56781;42.292;23.146;2023-03-14T09:24:42;95435.44;;;10.11;45.71
69570;BME280;56781;42.292;23.146;2023-03-14T09:27:09;95425.72;;;11.01;44.31
69570;BME280;56781;42.292;23.146;2023-03-14T09:29:36;95408.41;;;11.30;44.87
69570;BME280;56781;42.292;23.146;2023-03-14T09:32:04;95411.53;;;11.54;43.18
69570;BME280;56781;42.292;23.146;2023-03-14T09:34:31;95414.03;;;11.51;43.99
69570;BME280;56781;42.292;23.146;2023-03-14T09:36:58;95388.97;;;10.20;45.54
69570;BME280;56781;42.292;23.146;2023-03-14T09:39:25;95386.81;;;9.95;45.15
69570;BME280;56781;42.292;23.146;2023-03-14T09:41:54;95378.06;;;10.17;45.84
69570;BME280;56781;42.292;23.146;2023-03-14T09:44:31;95376.75;;;11.09;43.92
69570;BME280;56781;42.292;23.146;2023-03-14T09:47:07;95391.59;;;11.38;45.19
69570;BME280;56781;42.292;23.146;2023-03-14T09:49:39;95397.19;;;11.99;45.43
69570;BME280;56781;42.292;23.146;2023-03-14T09:54:45;95382.44;;;12.19;43.93
69570;BME280;56781;42.292;23.146;2023-03-14T09:57:17;95380.88;;;12.61;46.22
69570;BME280;56781;42.292;23.146;2023-03-14T09:59:46;95334.44;;;12.35;43.04
69570;BME280;56781;42.292;23.146;2023-03-14T10:02:26;95322.97;;;11.77;44.51
69570;BME280;56781;42.292;23.146;2023-03-14T10:04:55;95343.13;;;12.58;43.28
69570;BME280;56781;42.292;23.146;2023-03-14T10:07:32;95347.25;;;12.55;43.69
69570;BME280;56781;42.292;23.146;2023-03-14T10:10:00;95339.41;;;13.15;42.92
69570;BME280;56781;42.292;23.146;2023-03-14T10:12:35;95327.72;;;13.28;43.26
69570;BME280;56781;42.292;23.146;2023-03-14T10:15:13;95315.53;;;13.30;40.84
69570;BME280;56781;42.292;23.146;2023-03-14T10:17:48;95326.59;;;13.20;40.38
69570;BME280;56781;42.292;23.146;2023-03-14T10:20:26;95333.09;;;13.19;39.65
69570;BME280;56781;42.292;23.146;2023-03-14T10:23:17;95331.66;;;13.30;39.91
69570;BME280;56781;42.292;23.146;2023-03-14T10:25:59;95290.22;;;13.32;39.84
69570;BME280;56781;42.292;23.146;2023-03-14T10:28:46;95282.94;;;13.32;40.03
69570;BME280;56781;42.292;23.146;2023-03-14T10:31:14;95305.41;;;13.66;38.51
69570;BME280;56781;42.292;23.146;2023-03-14T10:33:42;95278.44;;;14.04;40.15
69570;BME280;56781;42.292;23.146;2023-03-14T10:36:21;95268.81;;;13.44;38.70
69570;BME280;56781;42.292;23.146;2023-03-14T10:38:57;95258.66;;;13.49;40.16
69570;BME280;56781;42.292;23.146;2023-03-14T10:41:31;95283.09;;;14.37;40.19
69570;BME280;56781;42.292;23.146;2023-03-14T10:44:00;95240.09;;;14.28;40.89
69570;BME280;56781;42.292;23.146;2023-03-14T10:46:30;95237.72;;;13.85;40.59
69570;BME280;56781;42.292;23.146;2023-03-14T10:49:04;95216.72;;;13.99;41.10
69570;BME280;56781;42.292;23.146;2023-03-14T10:51:33;95210.78;;;14.27;41.68
69570;BME280;56781;42.292;23.146;2023-03-14T10:54:03;95213.94;;;14.29;41.31
69570;BME280;56781;42.292;23.146;2023-03-14T10:56:35;95211.72;;;14.31;39.01
69570;BME280;56781;42.292;23.146;2023-03-14T10:59:11;95208.44;;;14.04;42.92
69570;BME280;56781;42.292;23.146;2023-03-14T11:01:55;95216.63;;;14.29;40.18
69570;BME280;56781;42.292;23.146;2023-03-14T11:07:25;95176.50;;;14.81;40.55
69570;BME280;56781;42.292;23.146;2023-03-14T11:10:14;95199.75;;;14.74;39.36
69570;BME280;56781;42.292;23.146;2023-03-14T11:21:28;95131.69;;;14.65;38.37
69570;BME280;56781;42.292;23.146;2023-03-14T11:29:52;95136.78;;;14.45;41.02
69570;BME280;56781;42.292;23.146;2023-03-14T11:35:33;95110.06;;;15.50;38.01
69570;BME280;56781;42.292;23.146;2023-03-14T11:38:12;95083.19;;;15.01;38.13
69570;BME280;56781;42.292;23.146;2023-03-14T11:40:40;95091.47;;;15.21;39.84
69570;BME280;56781;42.292;23.146;2023-03-14T11:45:38;95098.44;;;15.22;38.38
69570;BME280;56781;42.292;23.146;2023-03-14T11:48:32;95064.78;;;15.84;36.88
69570;BME280;56781;42.292;23.146;2023-03-14T11:51:09;95063.53;;;15.41;36.17
69570;BME280;56781;42.292;23.146;2023-03-14T11:53:43;95067.78;;;15.55;35.90
69570;BME280;56781;42.292;23.146;2023-03-14T11:56:44;95055.13;;;15.43;39.16
69570;BME280;56781;42.292;23.146;2023-03-14T11:59:19;95039.81;;;15.47;36.82
69570;BME280;56781;42.292;23.146;2023-03-14T12:02:01;95042.41;;;15.84;36.25
69570;BME280;56781;42.292;23.146;2023-03-14T12:10:28;95017.63;;;16.42;35.44
69570;BME280;56781;42.292;23.146;2023-03-14T12:12:58;95011.38;;;16.37;35.07
69570;BME280;56781;42.292;23.146;2023-03-14T12:15:25;95008.25;;;15.76;35.55
69570;BME280;56781;42.292;23.146;2023-03-14T12:17:56;95004.28;;;16.01;37.13
69570;BME280;56781;42.292;23.146;2023-03-14T12:20:25;95019.28;;;16.14;35.46
69570;BME280;56781;42.292;23.146;2023-03-14T12:22:54;94994.56;;;16.12;36.73
69570;BME280;56781;42.292;23.146;2023-03-14T12:25:30;94992.91;;;15.64;36.79
69570;BME280;56781;42.292;23.146;2023-03-14T12:28:21;95012.59;;;15.52;37.88
69570;BME280;56781;42.292;23.146;2023-03-14T12:42:09;94981.19;;;17.02;34.40
69570;BME280;56781;42.292;23.146;2023-03-14T12:44:45;94967.97;;;16.30;34.53
69570;BME280;56781;42.292;23.146;2023-03-14T12:49:48;94984.97;;;16.98;33.56
69570;BME280;56781;42.292;23.146;2023-03-14T12:52:20;94970.50;;;16.74;33.33
69570;BME280;56781;42.292;23.146;2023-03-14T12:57:40;94943.25;;;16.99;33.67
69570;BME280;56781;42.292;23.146;2023-03-14T13:00:23;94938.97;;;16.78;33.80
69570;BME280;56781;42.292;23.146;2023-03-14T13:02:50;94930.16;;;16.30;33.00
69570;BME280;56781;42.292;23.146;2023-03-14T13:05:20;94934.25;;;16.08;34.10
69570;BME280;56781;42.292;23.146;2023-03-14T13:10:30;94937.56;;;17.23;32.08
69570;BME280;56781;42.292;23.146;2023-03-14T13:15:48;94902.56;;;16.92;33.22
69570;BME280;56781;42.292;23.146;2023-03-14T13:18:32;94891.25;;;16.86;33.39
69570;BME280;56781;42.292;23.146;2023-03-14T13:21:34;94889.28;;;16.32;35.03
69570;BME280;56781;42.292;23.146;2023-03-14T13:24:05;94877.25;;;16.45;35.46
69570;BME280;56781;42.292;23.146;2023-03-14T13:26:37;94875.47;;;17.08;33.59
69570;BME280;56781;42.292;23.146;2023-03-14T13:29:16;94879.06;;;17.15;32.18
69570;BME280;56781;42.292;23.146;2023-03-14T13:31:46;94874.66;;;17.07;33.58
69570;BME280;56781;42.292;23.146;2023-03-14T13:34:13;94844.31;;;16.39;35.24
69570;BME280;56781;42.292;23.146;2023-03-14T13:36:41;94871.97;;;16.88;34.36
69570;BME280;56781;42.292;23.146;2023-03-14T13:39:14;94844.34;;;16.98;34.82
69570;BME280;56781;42.292;23.146;2023-03-14T13:41:46;94848.97;;;16.97;33.99
69570;BME280;56781;42.292;23.146;2023-03-14T13:44:17;94856.03;;;17.02;35.72
69570;BME280;56781;42.292;23.146;2023-03-14T13:46:44;94846.78;;;17.03;31.85
69570;BME280;56781;42.292;23.146;2023-03-14T13:49:19;94837.75;;;17.38;33.35
69570;BME280;56781;42.292;23.146;2023-03-14T13:51:48;94828.38;;;17.12;32.11
69570;BME280;56781;42.292;23.146;2023-03-14T13:54:21;94810.03;;;16.63;32.61